DTTX/SFA METAR and TAF weather

Enter ICAO airport designator
Station Type Date Time Source
DTTX METAR 2021/04/13 07:00 UTC NOAA

DTTX 130700Z 34015KT 9999 FEW030 17/05 Q1021


Station Type Date Time Source
DTTX Decoded METAR 2021/04/13 07:00 UTC NOAA

Sfax El-Maou, Tunisia (DTTX) 34-43N 010-41E 23M
Apr 13, 2021 - 03:00 AM EDT / 2021.04.13 0700 UTC
Wind: from the NNW (340 degrees) at 17 MPH (15 KT):0
Visibility: greater than 7 mile(s):0
Sky conditions: mostly clear
Temperature: 62 F (17 C)
Dew Point: 41 F (5 C)
Relative Humidity: 45%
Pressure (altimeter): 30.15 in. Hg (1021 hPa)
ob: DTTX 130700Z 34015KT 9999 FEW030 17/05 Q1021
cycle: 7

Station Type Date Time Source
DTTX TAF 2021/04/13 06:21 UTC NOAA

TAF DTTX 130500Z 1306/1406 35010KT 9999 FEW020
BECMG 1313/1315 09015KT
BECMG 1319/1321 12005KT

Example: see airport list